createdAt,value
2017-12-02T00:01:12.642Z,5.80
2017-12-02T00:03:40.229Z,5.80
2017-12-02T00:06:07.843Z,5.90
2017-12-02T00:08:35.430Z,5.90
2017-12-02T00:11:02.986Z,5.90
2017-12-02T00:13:30.552Z,5.90
2017-12-02T00:15:58.102Z,5.90
2017-12-02T00:18:25.663Z,6.00
2017-12-02T00:20:53.212Z,6.00
2017-12-02T00:23:21.547Z,6.00
2017-12-02T00:25:49.154Z,6.00
2017-12-02T00:28:16.771Z,6.00
2017-12-02T00:30:44.335Z,6.00
2017-12-02T00:33:12.150Z,6.00
2017-12-02T00:35:40.318Z,6.00
2017-12-02T00:38:07.961Z,6.00
2017-12-02T00:40:36.331Z,6.00
2017-12-02T00:43:04.174Z,6.00
2017-12-02T00:45:31.783Z,6.00
2017-12-02T00:47:59.343Z,6.00
2017-12-02T00:50:26.931Z,5.90
2017-12-02T00:52:54.536Z,5.90
2017-12-02T00:55:22.146Z,5.90
2017-12-02T00:57:49.690Z,5.90
2017-12-02T01:00:17.247Z,5.90
2017-12-02T01:02:44.849Z,5.90
2017-12-02T01:05:12.511Z,5.90
2017-12-02T01:07:40.194Z,5.80
2017-12-02T01:10:07.744Z,5.80
2017-12-02T01:12:35.306Z,5.80
2017-12-02T01:15:03.545Z,5.80
2017-12-02T01:17:31.115Z,5.80
2017-12-02T01:19:58.844Z,5.80
2017-12-02T01:22:27.177Z,5.80
2017-12-02T01:24:54.794Z,5.80
2017-12-02T01:27:22.411Z,5.90
2017-12-02T01:29:49.970Z,5.90
2017-12-02T01:32:17.551Z,5.90
2017-12-02T01:34:45.433Z,5.90
2017-12-02T01:37:13.040Z,5.90
2017-12-02T01:39:40.612Z,5.90
2017-12-02T01:42:08.197Z,5.90
2017-12-02T01:44:36.081Z,5.90
2017-12-02T01:47:04.411Z,5.90
2017-12-02T01:49:32.036Z,5.90
2017-12-02T01:51:59.632Z,5.90
2017-12-02T01:54:27.178Z,5.90
2017-12-02T01:56:54.878Z,5.90
2017-12-02T01:59:22.431Z,5.90
2017-12-02T02:01:50.010Z,5.90
2017-12-02T02:04:17.618Z,5.90
2017-12-02T02:06:45.183Z,5.90
2017-12-02T02:09:13.119Z,5.90
2017-12-02T02:11:41.462Z,5.80
2017-12-02T02:14:09.877Z,5.90
2017-12-02T02:16:37.511Z,5.90
2017-12-02T02:19:05.921Z,5.90
2017-12-02T02:21:33.815Z,5.90
2017-12-02T02:24:02.109Z,5.90
2017-12-02T02:26:29.718Z,5.90
2017-12-02T02:28:58.081Z,5.90
2017-12-02T02:31:26.786Z,5.90
2017-12-02T02:33:54.369Z,5.90
2017-12-02T02:36:21.987Z,5.90
2017-12-02T02:38:49.570Z,5.90
2017-12-02T02:41:17.122Z,5.90
2017-12-02T02:43:44.988Z,5.90
2017-12-02T02:46:14.020Z,5.90
2017-12-02T02:48:41.573Z,5.90
2017-12-02T02:51:09.172Z,5.90
2017-12-02T02:53:36.763Z,5.90
2017-12-02T02:56:05.088Z,5.90
2017-12-02T02:58:32.666Z,5.90
2017-12-02T03:01:00.227Z,5.90
2017-12-02T03:03:28.052Z,5.90
2017-12-02T03:05:55.612Z,5.90
2017-12-02T03:08:23.211Z,5.90
2017-12-02T03:10:51.093Z,5.90
2017-12-02T03:13:20.163Z,5.90
2017-12-02T03:15:47.746Z,5.90
2017-12-02T03:18:15.355Z,5.90
2017-12-02T03:20:42.982Z,5.90
2017-12-02T03:23:10.560Z,5.90
2017-12-02T03:25:38.201Z,5.90
2017-12-02T03:28:05.798Z,6.00
2017-12-02T03:30:33.394Z,6.00
2017-12-02T03:33:01.011Z,6.00
2017-12-02T03:35:28.603Z,6.00
2017-12-02T03:37:56.193Z,6.10
2017-12-02T03:40:23.792Z,6.10
2017-12-02T03:42:51.394Z,6.10
2017-12-02T03:45:18.994Z,6.10
2017-12-02T03:47:46.767Z,6.00
2017-12-02T03:50:15.096Z,6.00
2017-12-02T03:52:42.686Z,6.00
2017-12-02T03:55:10.245Z,6.00
2017-12-02T03:57:38.574Z,6.00
2017-12-02T04:00:06.159Z,6.00
2017-12-02T04:02:33.771Z,6.00
2017-12-02T04:05:02.130Z,6.00
2017-12-02T04:07:29.708Z,6.00
2017-12-02T04:09:57.270Z,5.90
2017-12-02T04:12:25.009Z,5.90
2017-12-02T04:14:52.607Z,5.80
2017-12-02T04:17:20.203Z,5.80
2017-12-02T04:19:47.831Z,5.80
2017-12-02T04:22:15.427Z,5.70
2017-12-02T04:24:42.982Z,5.70
2017-12-02T04:27:12.679Z,5.80
2017-12-02T04:29:40.259Z,5.80
2017-12-02T04:32:07.842Z,5.90
2017-12-02T04:34:35.408Z,5.90
2017-12-02T04:37:03.742Z,5.90
2017-12-02T04:39:31.311Z,5.90
2017-12-02T04:41:58.916Z,6.00
2017-12-02T04:44:27.292Z,6.00
2017-12-02T04:46:54.852Z,6.00
2017-12-02T04:49:22.434Z,5.90
2017-12-02T04:51:50.014Z,5.90
2017-12-02T04:54:17.617Z,5.80
2017-12-02T04:56:45.958Z,5.90
2017-12-02T04:59:13.764Z,5.90
2017-12-02T05:01:42.872Z,5.90
2017-12-02T05:04:11.491Z,5.90
2017-12-02T05:06:39.058Z,5.90
2017-12-02T05:09:06.679Z,5.90
2017-12-02T05:11:35.029Z,5.90
2017-12-02T05:14:02.944Z,5.90
2017-12-02T05:16:30.735Z,5.90
2017-12-02T05:18:58.817Z,5.80
2017-12-02T05:21:26.417Z,5.90
2017-12-02T05:23:54.034Z,5.90
2017-12-02T05:26:21.626Z,5.90
2017-12-02T05:28:49.198Z,5.90
2017-12-02T05:31:17.545Z,5.90
2017-12-02T05:33:45.134Z,5.90
2017-12-02T05:36:13.999Z,5.90
2017-12-02T05:38:42.084Z,5.90
2017-12-02T05:41:11.185Z,5.90
2017-12-02T05:43:38.821Z,5.90
2017-12-02T05:46:06.391Z,5.90
2017-12-02T05:48:34.175Z,6.00
2017-12-02T05:51:02.134Z,5.90
2017-12-02T05:53:29.750Z,5.90
2017-12-02T05:55:57.320Z,5.80
2017-12-02T05:58:25.031Z,5.80
2017-12-02T06:00:52.598Z,5.80
2017-12-02T06:03:20.204Z,5.80
2017-12-02T06:05:47.934Z,5.80
2017-12-02T06:08:16.299Z,5.90
2017-12-02T06:10:44.690Z,5.90
2017-12-02T06:13:12.231Z,5.90
2017-12-02T06:15:39.825Z,6.00
2017-12-02T06:18:07.412Z,6.00
2017-12-02T06:20:34.993Z,6.00
2017-12-02T06:23:02.549Z,6.00
2017-12-02T06:25:30.139Z,6.00
2017-12-02T06:27:57.710Z,6.00
2017-12-02T06:30:25.315Z,6.00
2017-12-02T06:32:52.908Z,5.90
2017-12-02T06:35:20.846Z,6.00
2017-12-02T06:37:48.461Z,6.00
2017-12-02T06:40:16.822Z,6.00
2017-12-02T06:42:45.187Z,6.00
2017-12-02T06:45:12.789Z,6.00
2017-12-02T06:47:41.170Z,6.00
2017-12-02T06:50:09.619Z,6.00
2017-12-02T06:52:37.183Z,6.00
2017-12-02T06:55:05.006Z,6.00
2017-12-02T06:57:32.587Z,6.00
2017-12-02T07:00:00.382Z,6.00
2017-12-02T07:02:28.781Z,6.00
2017-12-02T07:04:56.370Z,6.00
2017-12-02T07:07:23.926Z,6.00
2017-12-02T07:09:51.515Z,6.00
2017-12-02T07:12:19.890Z,6.00
2017-12-02T07:14:47.597Z,5.90
2017-12-02T07:17:15.956Z,5.80
2017-12-02T07:19:43.572Z,5.80
2017-12-02T07:22:11.185Z,5.70
2017-12-02T07:24:38.829Z,5.70
2017-12-02T07:27:07.363Z,5.70
2017-12-02T07:29:34.943Z,5.70
2017-12-02T07:32:02.535Z,5.70
2017-12-02T07:34:30.250Z,5.70
2017-12-02T07:36:57.847Z,5.70
2017-12-02T07:39:25.583Z,5.70
2017-12-02T07:41:53.245Z,5.80
2017-12-02T07:44:20.828Z,5.80
2017-12-02T07:46:48.388Z,5.90
2017-12-02T07:49:16.766Z,5.90
2017-12-02T07:51:44.337Z,5.90
2017-12-02T07:54:12.054Z,6.00
2017-12-02T07:56:39.611Z,6.00
2017-12-02T07:59:08.826Z,5.90
2017-12-02T08:01:36.489Z,5.90
2017-12-02T08:04:04.138Z,5.80
2017-12-02T08:06:32.003Z,5.70
2017-12-02T08:08:59.615Z,5.60
2017-12-02T08:11:27.174Z,5.50
2017-12-02T08:13:54.768Z,5.50
2017-12-02T08:16:23.659Z,5.40
2017-12-02T08:18:51.588Z,5.40
2017-12-02T08:21:19.910Z,5.40
2017-12-02T08:23:47.490Z,5.30
2017-12-02T08:26:15.138Z,5.20
2017-12-02T08:28:42.699Z,5.20
2017-12-02T08:31:10.433Z,5.20
2017-12-02T08:33:38.051Z,5.10
2017-12-02T08:36:05.634Z,5.10
2017-12-02T08:38:33.250Z,5.10
2017-12-02T08:41:00.832Z,5.10
2017-12-02T08:43:28.700Z,5.10
2017-12-02T08:45:56.283Z,5.10
2017-12-02T08:48:23.852Z,5.20
2017-12-02T08:50:51.475Z,5.20
2017-12-02T08:53:19.140Z,5.20
2017-12-02T08:55:46.909Z,5.30
2017-12-02T08:58:14.499Z,5.30
2017-12-02T09:00:42.327Z,5.30
2017-12-02T09:03:10.234Z,5.20
2017-12-02T09:05:37.867Z,5.20
2017-12-02T09:08:05.530Z,5.20
2017-12-02T09:10:33.202Z,5.30
2017-12-02T09:13:01.761Z,5.40
2017-12-02T09:15:29.363Z,5.50
2017-12-02T09:17:56.957Z,5.60
2017-12-02T09:20:24.633Z,5.70
2017-12-02T09:22:52.190Z,5.80
2017-12-02T09:25:20.413Z,5.80
2017-12-02T09:27:48.211Z,5.90
2017-12-02T09:30:16.011Z,6.00
2017-12-02T09:32:43.788Z,6.20
2017-12-02T09:35:11.366Z,6.40
2017-12-02T09:37:38.939Z,6.50
2017-12-02T09:40:07.303Z,6.80
2017-12-02T09:42:34.865Z,6.80
2017-12-02T09:45:02.607Z,7.00
2017-12-02T09:47:32.597Z,7.20
2017-12-02T09:50:00.259Z,7.30
2017-12-02T09:52:28.154Z,7.50
2017-12-02T09:54:55.765Z,7.70
2017-12-02T09:57:23.358Z,7.90
2017-12-02T09:59:50.955Z,8.00
2017-12-02T10:02:18.519Z,8.00
2017-12-02T10:04:46.980Z,8.10
2017-12-02T10:07:14.669Z,8.10
2017-12-02T10:09:42.250Z,8.10
2017-12-02T10:12:10.556Z,8.20
2017-12-02T10:14:38.273Z,8.20
2017-12-02T10:17:06.696Z,8.30
2017-12-02T10:19:34.282Z,8.30
2017-12-02T10:22:01.863Z,8.30
2017-12-02T10:24:29.428Z,8.40
2017-12-02T10:26:56.982Z,8.40
2017-12-02T10:29:24.545Z,8.50
2017-12-02T10:31:52.122Z,8.50
2017-12-02T10:34:19.688Z,8.60
2017-12-02T10:36:47.305Z,8.60
2017-12-02T10:39:14.943Z,8.60
2017-12-02T10:41:42.525Z,8.60
2017-12-02T10:44:10.091Z,8.70
2017-12-02T10:46:37.749Z,8.60
2017-12-02T10:49:05.310Z,8.60
2017-12-02T10:51:32.963Z,8.40
2017-12-02T10:54:01.721Z,8.30
2017-12-02T10:56:29.282Z,8.20
2017-12-02T10:58:57.624Z,8.20
2017-12-02T11:01:25.323Z,8.20
2017-12-02T11:03:52.951Z,8.20
2017-12-02T11:06:20.611Z,8.20
2017-12-02T11:08:48.175Z,8.20
2017-12-02T11:11:15.801Z,8.20
2017-12-02T11:13:43.397Z,8.20
2017-12-02T11:16:10.982Z,8.30
2017-12-02T11:18:38.543Z,8.30
2017-12-02T11:21:07.026Z,8.00
2017-12-02T11:23:35.271Z,8.00
2017-12-02T11:26:02.911Z,8.00
2017-12-02T11:28:30.474Z,8.00
2017-12-02T11:30:58.119Z,8.00
2017-12-02T11:33:25.696Z,8.10
2017-12-02T11:35:53.299Z,8.10
2017-12-02T11:38:22.110Z,8.20
2017-12-02T11:40:49.897Z,8.20
2017-12-02T11:43:17.672Z,8.20
2017-12-02T11:45:45.355Z,8.30
2017-12-02T11:48:12.924Z,8.40
2017-12-02T11:50:40.673Z,8.40
2017-12-02T11:53:08.328Z,8.40
2017-12-02T11:55:35.938Z,8.40
2017-12-02T11:58:04.520Z,8.40
2017-12-02T12:00:32.103Z,8.40
2017-12-02T12:02:59.881Z,8.30
2017-12-02T12:05:27.440Z,8.30
2017-12-02T12:07:55.040Z,8.30
2017-12-02T12:10:22.626Z,8.30
2017-12-02T12:12:51.094Z,8.20
2017-12-02T12:15:19.460Z,8.20
2017-12-02T12:17:47.189Z,8.20
2017-12-02T12:20:14.761Z,8.10
2017-12-02T12:22:42.512Z,8.00
2017-12-02T12:25:11.013Z,7.90
2017-12-02T12:27:38.604Z,7.80
2017-12-02T12:30:06.325Z,7.70
2017-12-02T12:32:33.934Z,7.60
2017-12-02T12:35:01.535Z,7.60
2017-12-02T12:37:29.212Z,7.60
2017-12-02T12:39:56.787Z,7.60
2017-12-02T12:42:24.362Z,7.60
2017-12-02T12:44:52.801Z,7.60
2017-12-02T12:47:20.418Z,7.60
2017-12-02T12:49:48.782Z,7.50
2017-12-02T12:52:18.408Z,7.40
2017-12-02T12:54:47.778Z,7.40
2017-12-02T12:57:15.336Z,7.40
2017-12-02T12:59:42.911Z,7.30
2017-12-02T13:02:10.485Z,7.40
2017-12-02T13:04:38.093Z,7.40
2017-12-02T13:07:05.868Z,7.50
2017-12-02T13:09:34.371Z,7.50
2017-12-02T13:12:02.701Z,7.50
2017-12-02T13:14:30.401Z,7.60
2017-12-02T13:16:58.020Z,7.50
2017-12-02T13:19:25.716Z,7.40
2017-12-02T13:21:53.323Z,7.30
2017-12-02T13:24:21.823Z,7.30
2017-12-02T13:26:49.474Z,7.10
2017-12-02T13:29:17.854Z,7.00
2017-12-02T13:31:46.318Z,7.00
2017-12-02T13:34:14.044Z,7.00
2017-12-02T13:36:41.902Z,7.00
2017-12-02T13:39:09.472Z,6.90
2017-12-02T13:41:37.226Z,6.90
2017-12-02T13:44:05.410Z,6.90
2017-12-02T13:46:33.019Z,6.90
2017-12-02T13:49:01.443Z,6.80
2017-12-02T13:51:29.029Z,6.80
2017-12-02T13:53:56.661Z,6.70
2017-12-02T13:56:24.502Z,6.60
2017-12-02T13:58:52.135Z,6.40
2017-12-02T14:01:19.695Z,6.20
2017-12-02T14:03:47.315Z,6.10
2017-12-02T14:06:15.048Z,6.00
2017-12-02T14:08:42.642Z,5.90
2017-12-02T14:11:10.300Z,5.90
2017-12-02T14:13:37.891Z,5.80
2017-12-02T14:16:05.461Z,5.80
2017-12-02T14:18:33.089Z,5.90
2017-12-02T14:21:00.638Z,5.90
2017-12-02T14:23:28.199Z,5.90
2017-12-02T14:25:56.475Z,6.00
2017-12-02T14:28:24.139Z,6.00
2017-12-02T14:30:51.910Z,6.00
2017-12-02T14:33:19.874Z,6.00
2017-12-02T14:35:47.447Z,6.00
2017-12-02T14:38:15.038Z,6.00
2017-12-02T14:40:43.262Z,6.00
2017-12-02T14:43:10.876Z,6.00
2017-12-02T14:45:38.786Z,5.90
2017-12-02T14:48:06.360Z,5.90
2017-12-02T14:50:34.092Z,5.90
2017-12-02T14:53:02.424Z,5.80
2017-12-02T14:55:30.005Z,5.80
2017-12-02T14:57:57.663Z,5.80
2017-12-02T15:00:25.491Z,5.70
2017-12-02T15:02:56.938Z,5.70
2017-12-02T15:05:25.256Z,5.70
2017-12-02T15:07:52.823Z,5.70
2017-12-02T15:10:21.210Z,5.60
2017-12-02T15:12:49.576Z,5.60
2017-12-02T15:15:17.132Z,5.60
2017-12-02T15:17:44.775Z,5.60
2017-12-02T15:20:12.407Z,5.60
2017-12-02T15:22:39.964Z,5.60
2017-12-02T15:25:07.575Z,5.60
2017-12-02T15:27:35.159Z,5.60
2017-12-02T15:30:04.608Z,5.60
2017-12-02T15:32:32.768Z,5.70
2017-12-02T15:35:00.371Z,5.70
2017-12-02T15:37:28.204Z,5.80
2017-12-02T15:39:56.150Z,5.80
2017-12-02T15:42:23.749Z,5.80
2017-12-02T15:44:51.429Z,5.80
2017-12-02T15:47:19.650Z,5.90
2017-12-02T15:49:47.442Z,5.90
2017-12-02T15:52:16.034Z,5.90
2017-12-02T15:54:43.656Z,5.90
2017-12-02T15:57:11.981Z,6.00
2017-12-02T15:59:39.724Z,6.00
2017-12-02T16:02:07.494Z,6.00
2017-12-02T16:04:35.084Z,5.90
2017-12-02T16:07:02.912Z,5.90
2017-12-02T16:09:30.578Z,5.90
2017-12-02T16:11:58.179Z,5.90
2017-12-02T16:14:25.800Z,5.80
2017-12-02T16:16:53.363Z,5.80
2017-12-02T16:19:21.128Z,5.70
2017-12-02T16:21:48.786Z,5.70
2017-12-02T16:24:16.392Z,5.70
2017-12-02T16:26:44.899Z,5.70
2017-12-02T16:29:13.223Z,5.60
2017-12-02T16:31:40.971Z,5.60
2017-12-02T16:34:08.586Z,5.70
2017-12-02T16:36:36.927Z,5.70
2017-12-02T16:39:04.564Z,5.70
2017-12-02T16:41:32.182Z,5.80
2017-12-02T16:44:00.537Z,5.80
2017-12-02T16:46:28.125Z,5.80
2017-12-02T16:48:57.279Z,5.80
2017-12-02T16:51:25.067Z,5.80
2017-12-02T16:53:52.667Z,5.80
2017-12-02T16:56:20.414Z,5.80
2017-12-02T16:58:48.995Z,5.80
2017-12-02T17:01:17.394Z,5.80
2017-12-02T17:03:45.009Z,5.80
2017-12-02T17:06:12.664Z,5.80
2017-12-02T17:08:40.252Z,5.80
2017-12-02T17:11:08.635Z,5.80
2017-12-02T17:13:36.457Z,5.80
2017-12-02T17:16:04.615Z,5.80
2017-12-02T17:18:32.210Z,5.80
2017-12-02T17:20:59.782Z,5.80
2017-12-02T17:23:27.375Z,5.70
2017-12-02T17:25:54.927Z,5.70
2017-12-02T17:28:22.530Z,5.70
2017-12-02T17:30:50.139Z,5.80
2017-12-02T17:33:17.790Z,5.70
2017-12-02T17:35:45.361Z,5.70
2017-12-02T17:38:13.077Z,5.70
2017-12-02T17:40:40.845Z,5.70
2017-12-02T17:43:08.436Z,5.70
2017-12-02T17:45:36.011Z,5.60
2017-12-02T17:48:03.570Z,5.60
2017-12-02T17:50:31.210Z,5.50
2017-12-02T17:52:58.767Z,5.50
2017-12-02T17:55:26.555Z,5.50
2017-12-02T17:57:55.643Z,5.50
2017-12-02T18:00:23.339Z,5.50
2017-12-02T18:02:51.715Z,5.50
2017-12-02T18:05:23.207Z,5.40
2017-12-02T18:07:51.662Z,5.40
2017-12-02T18:10:19.258Z,5.30
2017-12-02T18:12:46.853Z,5.20
2017-12-02T18:15:15.847Z,5.10
2017-12-02T18:17:50.130Z,5.00
2017-12-02T18:20:18.589Z,4.90
2017-12-02T18:22:46.663Z,4.90
2017-12-02T18:25:14.366Z,4.80
2017-12-02T18:27:41.921Z,4.70
2017-12-02T18:30:09.537Z,4.60
2017-12-02T18:32:37.127Z,4.50
2017-12-02T18:35:05.689Z,4.50
2017-12-02T18:37:33.261Z,4.50
2017-12-02T18:40:00.922Z,4.50
2017-12-02T18:42:29.075Z,4.40
2017-12-02T18:44:56.703Z,4.40
2017-12-02T18:47:24.276Z,4.30
2017-12-02T18:49:52.605Z,4.30
2017-12-02T18:52:20.970Z,4.30
2017-12-02T18:54:48.970Z,4.20
2017-12-02T18:57:17.280Z,4.20
2017-12-02T18:59:46.032Z,4.10
2017-12-02T19:02:13.889Z,4.10
2017-12-02T19:04:41.539Z,4.10
2017-12-02T19:07:11.580Z,4.20
2017-12-02T19:09:39.167Z,4.10
2017-12-02T19:12:07.799Z,4.00
2017-12-02T19:14:35.495Z,4.00
2017-12-02T19:17:03.601Z,4.00
2017-12-02T19:19:31.330Z,3.80
2017-12-02T19:22:00.282Z,3.70
2017-12-02T19:24:28.171Z,3.70
2017-12-02T19:26:55.981Z,3.70
2017-12-02T19:29:25.220Z,3.70
2017-12-02T19:31:52.881Z,3.70
2017-12-02T19:34:20.511Z,3.60
2017-12-02T19:36:49.228Z,3.60
2017-12-02T19:39:16.797Z,3.60
2017-12-02T19:41:44.860Z,3.60
2017-12-02T19:44:12.995Z,3.50
2017-12-02T19:46:42.538Z,3.40
2017-12-02T19:49:10.610Z,3.40
2017-12-02T19:51:38.608Z,3.40
2017-12-02T19:54:06.891Z,3.40
2017-12-02T19:56:35.141Z,3.30
2017-12-02T19:59:03.115Z,3.20
2017-12-02T20:01:31.411Z,3.10
2017-12-02T20:03:59.294Z,3.10
2017-12-02T20:06:26.864Z,3.00
2017-12-02T20:08:55.190Z,2.90
2017-12-02T20:11:23.717Z,2.90
2017-12-02T20:13:51.316Z,2.90
2017-12-02T20:16:18.864Z,2.80
2017-12-02T20:18:47.714Z,2.70
2017-12-02T20:21:15.346Z,2.70
2017-12-02T20:23:42.926Z,2.70
2017-12-02T20:26:10.912Z,2.70
2017-12-02T20:28:38.637Z,2.60
2017-12-02T20:31:06.297Z,2.60
2017-12-02T20:33:34.371Z,2.60
2017-12-02T20:36:02.692Z,2.70
2017-12-02T20:38:31.022Z,2.90
2017-12-02T20:40:58.639Z,3.20
2017-12-02T20:43:26.403Z,3.40
2017-12-02T20:45:55.074Z,3.80
2017-12-02T20:48:22.747Z,3.80
2017-12-02T20:50:50.440Z,3.90
2017-12-02T20:53:18.950Z,4.00
2017-12-02T20:55:46.656Z,4.10
2017-12-02T20:58:15.811Z,4.20
2017-12-02T21:00:43.511Z,4.20
2017-12-02T21:03:11.545Z,4.30
2017-12-02T21:05:39.256Z,4.30
2017-12-02T21:08:07.894Z,4.30
2017-12-02T21:10:35.732Z,4.20
2017-12-02T21:13:03.304Z,4.30
2017-12-02T21:15:31.056Z,4.30
2017-12-02T21:18:00.465Z,4.30
2017-12-02T21:20:28.380Z,4.30
2017-12-02T21:22:56.317Z,4.20
2017-12-02T21:25:24.917Z,4.20
2017-12-02T21:27:52.631Z,4.20
2017-12-02T21:30:21.057Z,4.20
2017-12-02T21:32:48.816Z,4.20
2017-12-02T21:35:16.476Z,4.20
2017-12-02T21:37:44.152Z,4.30
2017-12-02T21:40:12.109Z,4.30
2017-12-02T21:42:39.901Z,4.20
2017-12-02T21:45:07.471Z,4.30
2017-12-02T21:47:35.410Z,4.30
2017-12-02T21:50:03.141Z,4.40
2017-12-02T21:52:30.943Z,4.40
2017-12-02T21:54:58.551Z,4.40
2017-12-02T21:57:26.998Z,4.40
2017-12-02T21:59:54.642Z,4.40
2017-12-02T22:02:23.024Z,4.40
2017-12-02T22:04:50.798Z,4.50
2017-12-02T22:07:19.162Z,4.50
2017-12-02T22:09:46.918Z,4.50
2017-12-02T22:12:14.557Z,4.50
2017-12-02T22:14:42.446Z,4.50
2017-12-02T22:17:10.407Z,4.50
2017-12-02T22:19:38.886Z,4.50
2017-12-02T22:22:06.552Z,4.50
2017-12-02T22:24:34.192Z,4.50
2017-12-02T22:27:02.564Z,4.50
2017-12-02T22:29:30.899Z,4.50
2017-12-02T22:31:58.531Z,4.50
2017-12-02T22:34:26.115Z,4.50
2017-12-02T22:36:54.035Z,4.40
2017-12-02T22:39:22.499Z,4.00
2017-12-02T22:41:50.075Z,4.00
2017-12-02T22:44:17.693Z,3.80
2017-12-02T22:46:45.329Z,3.60
2017-12-02T22:49:12.896Z,3.40
2017-12-02T22:51:41.443Z,3.20
2017-12-02T22:54:09.757Z,3.00
2017-12-02T22:56:37.890Z,2.90
2017-12-02T22:59:05.695Z,2.70
2017-12-02T23:01:33.266Z,2.60
2017-12-02T23:04:02.431Z,2.40
2017-12-02T23:06:30.303Z,2.40
2017-12-02T23:08:58.605Z,2.30
2017-12-02T23:11:26.608Z,2.20
2017-12-02T23:13:56.462Z,2.10
2017-12-02T23:16:24.154Z,2.10
2017-12-02T23:18:51.765Z,2.00
2017-12-02T23:21:20.418Z,1.90
2017-12-02T23:23:48.835Z,1.90
2017-12-02T23:26:16.499Z,1.90
2017-12-02T23:28:44.840Z,1.80
2017-12-02T23:31:13.554Z,1.70
2017-12-02T23:33:41.189Z,1.70
2017-12-02T23:36:08.746Z,1.70
2017-12-02T23:38:36.520Z,1.70
2017-12-02T23:41:04.091Z,1.60
2017-12-02T23:43:31.716Z,1.60
2017-12-02T23:45:59.320Z,1.60
2017-12-02T23:48:26.876Z,1.60
2017-12-02T23:50:55.237Z,1.60
2017-12-02T23:53:22.800Z,1.50
2017-12-02T23:55:50.358Z,1.50
2017-12-02T23:58:18.214Z,1.50
